sensor_id;sensor_type;location;lat;lon;timestamp;pressure;altitude;pressure_sealevel;temperature;humidity
5550;BME280;2798;42.716;23.256;2023-09-30T00:00:56;95144.06;;;19.06;52.28
5550;BME280;2798;42.716;23.256;2023-09-30T00:03:21;95142.28;;;19.07;52.33
5550;BME280;2798;42.716;23.256;2023-09-30T00:05:46;95146.59;;;19.16;51.97
5550;BME280;2798;42.716;23.256;2023-09-30T00:08:12;95146.47;;;19.18;51.93
5550;BME280;2798;42.716;23.256;2023-09-30T00:10:37;95134.09;;;19.20;51.95
5550;BME280;2798;42.716;23.256;2023-09-30T00:13:02;95139.69;;;19.07;52.19
5550;BME280;2798;42.716;23.256;2023-09-30T00:15:27;95141.63;;;19.05;52.51
5550;BME280;2798;42.716;23.256;2023-09-30T00:17:53;95134.78;;;19.03;52.36
5550;BME280;2798;42.716;23.256;2023-09-30T00:20:19;95144.31;;;19.13;52.32
5550;BME280;2798;42.716;23.256;2023-09-30T00:22:44;95142.94;;;19.09;52.36
5550;BME280;2798;42.716;23.256;2023-09-30T00:25:09;95138.97;;;18.96;53.04
5550;BME280;2798;42.716;23.256;2023-09-30T00:27:35;95133.28;;;19.01;52.63
5550;BME280;2798;42.716;23.256;2023-09-30T00:30:00;95134.47;;;19.07;52.76
5550;BME280;2798;42.716;23.256;2023-09-30T00:32:26;95131.03;;;19.06;52.78
5550;BME280;2798;42.716;23.256;2023-09-30T00:34:51;95130.44;;;19.12;52.40
5550;BME280;2798;42.716;23.256;2023-09-30T00:37:17;95121.94;;;19.10;52.10
5550;BME280;2798;42.716;23.256;2023-09-30T00:39:42;95124.69;;;19.09;52.62
5550;BME280;2798;42.716;23.256;2023-09-30T00:42:09;95129.34;;;19.15;52.44
5550;BME280;2798;42.716;23.256;2023-09-30T00:44:35;95131.13;;;19.14;52.33
5550;BME280;2798;42.716;23.256;2023-09-30T00:47:00;95126.22;;;19.11;52.45
5550;BME280;2798;42.716;23.256;2023-09-30T00:49:25;95125.81;;;19.06;52.51
5550;BME280;2798;42.716;23.256;2023-09-30T00:51:51;95133.28;;;19.01;52.76
5550;BME280;2798;42.716;23.256;2023-09-30T00:54:16;95127.88;;;18.94;53.06
5550;BME280;2798;42.716;23.256;2023-09-30T00:56:45;95123.97;;;18.98;52.82
5550;BME280;2798;42.716;23.256;2023-09-30T00:59:12;95116.38;;;19.05;52.86
5550;BME280;2798;42.716;23.256;2023-09-30T01:01:38;95138.28;;;19.12;52.75
5550;BME280;2798;42.716;23.256;2023-09-30T01:04:03;95123.22;;;19.06;53.05
5550;BME280;2798;42.716;23.256;2023-09-30T01:06:28;95120.38;;;18.99;53.11
5550;BME280;2798;42.716;23.256;2023-09-30T01:08:54;95117.84;;;19.08;52.97
5550;BME280;2798;42.716;23.256;2023-09-30T01:11:20;95113.00;;;19.13;52.70
5550;BME280;2798;42.716;23.256;2023-09-30T01:13:45;95114.13;;;19.10;52.81
5550;BME280;2798;42.716;23.256;2023-09-30T01:16:12;95112.03;;;19.14;52.83
5550;BME280;2798;42.716;23.256;2023-09-30T01:18:38;95114.56;;;19.06;53.17
5550;BME280;2798;42.716;23.256;2023-09-30T01:21:04;95120.91;;;19.03;53.34
5550;BME280;2798;42.716;23.256;2023-09-30T01:23:30;95114.22;;;19.00;53.46
5550;BME280;2798;42.716;23.256;2023-09-30T01:25:56;95116.47;;;18.95;53.94
5550;BME280;2798;42.716;23.256;2023-09-30T01:28:21;95116.97;;;18.99;54.02
5550;BME280;2798;42.716;23.256;2023-09-30T01:30:48;95116.09;;;18.90;54.03
5550;BME280;2798;42.716;23.256;2023-09-30T01:33:13;95117.88;;;18.89;54.19
5550;BME280;2798;42.716;23.256;2023-09-30T01:35:39;95118.09;;;18.96;53.88
5550;BME280;2798;42.716;23.256;2023-09-30T01:38:04;95086.06;;;18.77;53.63
5550;BME280;2798;42.716;23.256;2023-09-30T01:40:29;95049.22;;;18.54;53.66
5550;BME280;2798;42.716;23.256;2023-09-30T01:42:55;95122.03;;;19.00;54.14
5550;BME280;2798;42.716;23.256;2023-09-30T01:45:21;95116.53;;;19.03;53.72
5550;BME280;2798;42.716;23.256;2023-09-30T01:47:46;95120.16;;;19.11;53.65
5550;BME280;2798;42.716;23.256;2023-09-30T01:52:40;95115.53;;;19.05;53.13
5550;BME280;2798;42.716;23.256;2023-09-30T01:55:06;95118.00;;;19.06;52.92
5550;BME280;2798;42.716;23.256;2023-09-30T01:57:31;95118.97;;;19.05;53.22
5550;BME280;2798;42.716;23.256;2023-09-30T01:59:56;95116.97;;;18.99;53.55
5550;BME280;2798;42.716;23.256;2023-09-30T02:02:22;95115.00;;;19.01;53.59
5550;BME280;2798;42.716;23.256;2023-09-30T02:04:47;95116.69;;;19.02;53.74
5550;BME280;2798;42.716;23.256;2023-09-30T02:07:12;95116.16;;;18.98;54.10
5550;BME280;2798;42.716;23.256;2023-09-30T02:09:37;95120.38;;;18.99;54.08
5550;BME280;2798;42.716;23.256;2023-09-30T02:12:03;95110.22;;;18.88;54.46
5550;BME280;2798;42.716;23.256;2023-09-30T02:14:28;95117.63;;;18.74;54.80
5550;BME280;2798;42.716;23.256;2023-09-30T02:16:53;95109.19;;;18.81;54.75
5550;BME280;2798;42.716;23.256;2023-09-30T02:19:19;95104.44;;;18.76;54.91
5550;BME280;2798;42.716;23.256;2023-09-30T02:21:44;95103.84;;;18.82;54.52
5550;BME280;2798;42.716;23.256;2023-09-30T02:24:10;95111.38;;;18.67;55.07
5550;BME280;2798;42.716;23.256;2023-09-30T02:26:35;95118.34;;;18.58;54.99
5550;BME280;2798;42.716;23.256;2023-09-30T02:29:00;95117.88;;;18.63;55.08
5550;BME280;2798;42.716;23.256;2023-09-30T02:31:25;95115.84;;;18.75;54.73
5550;BME280;2798;42.716;23.256;2023-09-30T02:33:51;95116.28;;;18.70;54.89
5550;BME280;2798;42.716;23.256;2023-09-30T02:36:25;95115.44;;;18.61;55.33
5550;BME280;2798;42.716;23.256;2023-09-30T02:38:52;95125.56;;;18.64;55.16
5550;BME280;2798;42.716;23.256;2023-09-30T02:41:17;95121.47;;;18.62;55.20
5550;BME280;2798;42.716;23.256;2023-09-30T02:43:43;95120.28;;;18.56;55.38
5550;BME280;2798;42.716;23.256;2023-09-30T02:46:08;95111.63;;;18.56;55.54
5550;BME280;2798;42.716;23.256;2023-09-30T02:48:35;95114.69;;;18.51;55.63
5550;BME280;2798;42.716;23.256;2023-09-30T02:51:00;95107.69;;;18.51;55.70
5550;BME280;2798;42.716;23.256;2023-09-30T02:53:26;95110.31;;;18.51;55.54
5550;BME280;2798;42.716;23.256;2023-09-30T02:55:51;95119.00;;;18.60;55.47
5550;BME280;2798;42.716;23.256;2023-09-30T02:58:21;95113.59;;;18.53;55.82
5550;BME280;2798;42.716;23.256;2023-09-30T03:00:49;95114.34;;;18.46;56.22
5550;BME280;2798;42.716;23.256;2023-09-30T03:03:15;95113.66;;;18.44;56.22
5550;BME280;2798;42.716;23.256;2023-09-30T03:05:40;95115.97;;;18.47;56.42
5550;BME280;2798;42.716;23.256;2023-09-30T03:08:06;95121.34;;;18.45;56.71
5550;BME280;2798;42.716;23.256;2023-09-30T03:10:31;95112.91;;;18.33;57.13
5550;BME280;2798;42.716;23.256;2023-09-30T03:12:56;95119.78;;;18.34;56.81
5550;BME280;2798;42.716;23.256;2023-09-30T03:15:26;95112.63;;;18.36;56.90
5550;BME280;2798;42.716;23.256;2023-09-30T03:17:51;95113.06;;;18.32;57.09
5550;BME280;2798;42.716;23.256;2023-09-30T03:20:18;95111.06;;;18.25;56.90
5550;BME280;2798;42.716;23.256;2023-09-30T03:22:45;95117.94;;;18.26;56.86
5550;BME280;2798;42.716;23.256;2023-09-30T03:25:14;95113.28;;;18.20;56.98
5550;BME280;2798;42.716;23.256;2023-09-30T03:27:41;95116.06;;;18.19;57.18
5550;BME280;2798;42.716;23.256;2023-09-30T03:30:06;95112.88;;;18.25;56.94
5550;BME280;2798;42.716;23.256;2023-09-30T03:32:32;95100.88;;;18.14;57.16
5550;BME280;2798;42.716;23.256;2023-09-30T03:34:59;95116.66;;;18.12;57.32
5550;BME280;2798;42.716;23.256;2023-09-30T03:37:26;95109.50;;;18.14;57.15
5550;BME280;2798;42.716;23.256;2023-09-30T03:39:53;95110.69;;;18.20;56.80
5550;BME280;2798;42.716;23.256;2023-09-30T03:42:18;95109.38;;;18.16;56.89
5550;BME280;2798;42.716;23.256;2023-09-30T03:44:43;95092.06;;;17.97;56.99
5550;BME280;2798;42.716;23.256;2023-09-30T03:47:09;95117.28;;;17.96;57.58
5550;BME280;2798;42.716;23.256;2023-09-30T03:49:34;95107.00;;;17.95;57.64
5550;BME280;2798;42.716;23.256;2023-09-30T03:51:59;95110.44;;;17.95;57.54
5550;BME280;2798;42.716;23.256;2023-09-30T03:54:26;95104.13;;;17.98;57.40
5550;BME280;2798;42.716;23.256;2023-09-30T03:56:52;95118.09;;;17.97;57.13
5550;BME280;2798;42.716;23.256;2023-09-30T03:59:17;95107.00;;;17.95;57.24
5550;BME280;2798;42.716;23.256;2023-09-30T04:01:43;95106.13;;;17.86;57.54
5550;BME280;2798;42.716;23.256;2023-09-30T04:04:09;95105.25;;;17.95;57.56
5550;BME280;2798;42.716;23.256;2023-09-30T04:06:35;95111.28;;;17.96;57.10
5550;BME280;2798;42.716;23.256;2023-09-30T04:09:03;95106.78;;;17.88;57.22
5550;BME280;2798;42.716;23.256;2023-09-30T04:11:28;95115.84;;;17.84;57.26
5550;BME280;2798;42.716;23.256;2023-09-30T04:13:54;95114.38;;;17.81;57.60
5550;BME280;2798;42.716;23.256;2023-09-30T04:16:20;95119.53;;;17.91;57.29
5550;BME280;2798;42.716;23.256;2023-09-30T04:18:46;95117.34;;;17.86;57.39
5550;BME280;2798;42.716;23.256;2023-09-30T04:21:11;95123.66;;;17.84;57.44
5550;BME280;2798;42.716;23.256;2023-09-30T04:23:36;95118.31;;;17.85;57.94
5550;BME280;2798;42.716;23.256;2023-09-30T04:26:02;95125.09;;;17.78;58.17
5550;BME280;2798;42.716;23.256;2023-09-30T04:28:27;95097.09;;;17.62;58.11
5550;BME280;2798;42.716;23.256;2023-09-30T04:30:53;95130.00;;;17.81;58.46
5550;BME280;2798;42.716;23.256;2023-09-30T04:33:19;95132.66;;;17.71;58.53
5550;BME280;2798;42.716;23.256;2023-09-30T04:35:45;95136.13;;;17.62;58.98
5550;BME280;2798;42.716;23.256;2023-09-30T04:38:10;95133.91;;;17.67;58.55
5550;BME280;2798;42.716;23.256;2023-09-30T04:40:36;95140.13;;;17.56;59.07
5550;BME280;2798;42.716;23.256;2023-09-30T04:43:02;95143.16;;;17.51;59.14
5550;BME280;2798;42.716;23.256;2023-09-30T04:45:27;95153.28;;;17.54;59.25
5550;BME280;2798;42.716;23.256;2023-09-30T04:47:53;95145.75;;;17.51;59.12
5550;BME280;2798;42.716;23.256;2023-09-30T04:50:21;95143.13;;;17.61;59.07
5550;BME280;2798;42.716;23.256;2023-09-30T04:52:47;95151.75;;;17.62;58.70
5550;BME280;2798;42.716;23.256;2023-09-30T04:55:12;95143.16;;;17.51;59.28
5550;BME280;2798;42.716;23.256;2023-09-30T04:57:38;95153.28;;;17.54;58.79
5550;BME280;2798;42.716;23.256;2023-09-30T05:00:04;95139.25;;;17.65;58.66
5550;BME280;2798;42.716;23.256;2023-09-30T05:02:36;95150.38;;;17.58;58.75
5550;BME280;2798;42.716;23.256;2023-09-30T05:05:01;95153.09;;;17.66;58.52
5550;BME280;2798;42.716;23.256;2023-09-30T05:07:30;95150.47;;;17.66;58.25
5550;BME280;2798;42.716;23.256;2023-09-30T05:09:55;95154.28;;;17.72;58.12
5550;BME280;2798;42.716;23.256;2023-09-30T05:12:21;95155.00;;;17.64;58.04
5550;BME280;2798;42.716;23.256;2023-09-30T05:14:46;95155.09;;;17.72;57.89
5550;BME280;2798;42.716;23.256;2023-09-30T05:17:11;95156.63;;;17.75;58.07
5550;BME280;2798;42.716;23.256;2023-09-30T05:19:37;95161.81;;;17.75;58.02
5550;BME280;2798;42.716;23.256;2023-09-30T05:22:02;95159.88;;;17.77;58.10
5550;BME280;2798;42.716;23.256;2023-09-30T05:24:28;95154.97;;;17.74;58.05
5550;BME280;2798;42.716;23.256;2023-09-30T05:26:53;95165.38;;;17.74;57.99
5550;BME280;2798;42.716;23.256;2023-09-30T05:29:19;95164.56;;;17.73;58.09
5550;BME280;2798;42.716;23.256;2023-09-30T05:31:45;95166.50;;;17.89;57.67
5550;BME280;2798;42.716;23.256;2023-09-30T05:34:10;95171.59;;;17.91;57.83
5550;BME280;2798;42.716;23.256;2023-09-30T05:36:36;95168.38;;;17.79;58.26
5550;BME280;2798;42.716;23.256;2023-09-30T05:39:02;95171.34;;;17.84;58.21
5550;BME280;2798;42.716;23.256;2023-09-30T05:41:28;95180.91;;;17.94;58.23
5550;BME280;2798;42.716;23.256;2023-09-30T05:43:54;95178.44;;;17.92;58.13
5550;BME280;2798;42.716;23.256;2023-09-30T05:46:20;95181.03;;;17.92;58.28
5550;BME280;2798;42.716;23.256;2023-09-30T05:48:45;95177.84;;;17.98;57.98
5550;BME280;2798;42.716;23.256;2023-09-30T05:51:10;95182.91;;;18.00;57.64
5550;BME280;2798;42.716;23.256;2023-09-30T05:53:39;95178.38;;;18.02;57.45
5550;BME280;2798;42.716;23.256;2023-09-30T05:56:05;95180.97;;;18.12;57.29
5550;BME280;2798;42.716;23.256;2023-09-30T05:58:30;95177.91;;;18.16;56.96
5550;BME280;2798;42.716;23.256;2023-09-30T06:00:55;95178.88;;;18.15;56.89
5550;BME280;2798;42.716;23.256;2023-09-30T06:03:20;95185.28;;;18.21;56.25
5550;BME280;2798;42.716;23.256;2023-09-30T06:05:48;95161.41;;;17.98;56.23
5550;BME280;2798;42.716;23.256;2023-09-30T06:08:14;95189.53;;;18.22;56.08
5550;BME280;2798;42.716;23.256;2023-09-30T06:10:40;95153.53;;;18.08;55.75
5550;BME280;2798;42.716;23.256;2023-09-30T06:13:09;95192.94;;;18.41;55.53
5550;BME280;2798;42.716;23.256;2023-09-30T06:15:41;95192.66;;;18.44;55.26
5550;BME280;2798;42.716;23.256;2023-09-30T06:18:07;95188.63;;;18.50;54.59
5550;BME280;2798;42.716;23.256;2023-09-30T06:20:33;95189.03;;;18.55;54.78
5550;BME280;2798;42.716;23.256;2023-09-30T06:22:58;95188.56;;;18.60;54.51
5550;BME280;2798;42.716;23.256;2023-09-30T06:25:25;95188.63;;;18.68;54.35
5550;BME280;2798;42.716;23.256;2023-09-30T06:27:50;95196.81;;;18.73;54.31
5550;BME280;2798;42.716;23.256;2023-09-30T06:30:17;95190.72;;;18.83;54.54
5550;BME280;2798;42.716;23.256;2023-09-30T06:32:44;95223.03;;;18.90;53.85
5550;BME280;2798;42.716;23.256;2023-09-30T06:35:10;95195.69;;;18.94;54.07
5550;BME280;2798;42.716;23.256;2023-09-30T06:37:36;95192.00;;;19.05;53.56
5550;BME280;2798;42.716;23.256;2023-09-30T06:40:03;95194.31;;;19.08;53.44
5550;BME280;2798;42.716;23.256;2023-09-30T06:42:30;95196.34;;;19.14;53.66
5550;BME280;2798;42.716;23.256;2023-09-30T06:44:55;95204.38;;;19.21;53.10
5550;BME280;2798;42.716;23.256;2023-09-30T06:47:21;95203.75;;;19.27;53.01
5550;BME280;2798;42.716;23.256;2023-09-30T06:49:47;95209.97;;;19.35;52.56
5550;BME280;2798;42.716;23.256;2023-09-30T06:52:12;95206.59;;;19.43;52.25
5550;BME280;2798;42.716;23.256;2023-09-30T06:54:38;95207.63;;;19.50;52.12
5550;BME280;2798;42.716;23.256;2023-09-30T06:57:03;95207.84;;;19.57;52.01
5550;BME280;2798;42.716;23.256;2023-09-30T06:59:29;95206.38;;;19.62;51.34
5550;BME280;2798;42.716;23.256;2023-09-30T07:01:55;95204.94;;;19.68;51.42
5550;BME280;2798;42.716;23.256;2023-09-30T07:04:20;95214.28;;;19.79;51.36
5550;BME280;2798;42.716;23.256;2023-09-30T07:06:46;95220.03;;;19.83;51.57
5550;BME280;2798;42.716;23.256;2023-09-30T07:09:12;95219.25;;;19.91;51.25
5550;BME280;2798;42.716;23.256;2023-09-30T07:11:37;95214.50;;;19.94;50.46
5550;BME280;2798;42.716;23.256;2023-09-30T07:14:02;95213.88;;;20.00;51.51
5550;BME280;2798;42.716;23.256;2023-09-30T07:16:27;95209.53;;;20.09;51.25
5550;BME280;2798;42.716;23.256;2023-09-30T07:18:53;95205.81;;;20.29;49.37
5550;BME280;2798;42.716;23.256;2023-09-30T07:21:19;95210.56;;;20.33;47.47
5550;BME280;2798;42.716;23.256;2023-09-30T07:23:44;95209.38;;;20.19;47.96
5550;BME280;2798;42.716;23.256;2023-09-30T07:26:09;95209.56;;;20.18;47.86
5550;BME280;2798;42.716;23.256;2023-09-30T07:28:34;95216.25;;;20.20;48.22
5550;BME280;2798;42.716;23.256;2023-09-30T07:31:00;95212.31;;;20.16;47.62
5550;BME280;2798;42.716;23.256;2023-09-30T07:33:25;95215.59;;;20.26;47.60
5550;BME280;2798;42.716;23.256;2023-09-30T07:35:50;95220.88;;;20.43;46.95
5550;BME280;2798;42.716;23.256;2023-09-30T07:38:16;95217.09;;;20.46;47.39
5550;BME280;2798;42.716;23.256;2023-09-30T07:40:41;95219.75;;;20.54;47.07
5550;BME280;2798;42.716;23.256;2023-09-30T07:43:07;95216.31;;;20.62;47.21
5550;BME280;2798;42.716;23.256;2023-09-30T07:45:32;95214.53;;;20.71;47.18
5550;BME280;2798;42.716;23.256;2023-09-30T07:47:57;95216.16;;;20.80;47.23
5550;BME280;2798;42.716;23.256;2023-09-30T07:50:29;95214.09;;;20.92;46.45
5550;BME280;2798;42.716;23.256;2023-09-30T07:52:54;95226.19;;;21.02;46.29
5550;BME280;2798;42.716;23.256;2023-09-30T07:55:20;95218.66;;;21.07;46.17
5550;BME280;2798;42.716;23.256;2023-09-30T07:57:45;95225.84;;;21.13;45.93
5550;BME280;2798;42.716;23.256;2023-09-30T08:00:11;95219.44;;;21.16;44.87
5550;BME280;2798;42.716;23.256;2023-09-30T08:02:40;95217.81;;;21.23;45.41
5550;BME280;2798;42.716;23.256;2023-09-30T08:05:05;95224.00;;;21.47;43.28
5550;BME280;2798;42.716;23.256;2023-09-30T08:07:31;95217.78;;;21.40;43.55
5550;BME280;2798;42.716;23.256;2023-09-30T08:09:56;95221.88;;;21.42;44.33
5550;BME280;2798;42.716;23.256;2023-09-30T08:12:21;95226.59;;;21.55;43.41
5550;BME280;2798;42.716;23.256;2023-09-30T08:14:46;95217.75;;;21.56;43.42
5550;BME280;2798;42.716;23.256;2023-09-30T08:17:12;95211.00;;;21.62;43.86
5550;BME280;2798;42.716;23.256;2023-09-30T08:19:37;95219.16;;;21.76;42.91
5550;BME280;2798;42.716;23.256;2023-09-30T08:24:28;95218.00;;;21.86;41.69
5550;BME280;2798;42.716;23.256;2023-09-30T08:26:54;95216.69;;;21.91;41.21
5550;BME280;2798;42.716;23.256;2023-09-30T08:29:20;95221.06;;;21.98;40.59
5550;BME280;2798;42.716;23.256;2023-09-30T08:31:46;95227.09;;;21.99;40.39
5550;BME280;2798;42.716;23.256;2023-09-30T08:34:11;95218.06;;;22.10;40.35
5550;BME280;2798;42.716;23.256;2023-09-30T08:36:39;95216.72;;;22.14;40.15
5550;BME280;2798;42.716;23.256;2023-09-30T08:39:04;95216.56;;;22.16;40.75
5550;BME280;2798;42.716;23.256;2023-09-30T08:41:33;95212.75;;;22.18;39.67
5550;BME280;2798;42.716;23.256;2023-09-30T08:44:02;95210.28;;;22.25;40.30
5550;BME280;2798;42.716;23.256;2023-09-30T08:46:31;95215.00;;;22.30;39.15
5550;BME280;2798;42.716;23.256;2023-09-30T08:48:57;95211.94;;;22.50;38.86
5550;BME280;2798;42.716;23.256;2023-09-30T08:51:23;95206.69;;;22.50;38.62
5550;BME280;2798;42.716;23.256;2023-09-30T08:53:48;95201.94;;;22.53;38.87
5550;BME280;2798;42.716;23.256;2023-09-30T08:56:15;95207.47;;;22.58;38.87
5550;BME280;2798;42.716;23.256;2023-09-30T08:58:41;95202.34;;;22.65;37.93
5550;BME280;2798;42.716;23.256;2023-09-30T09:01:07;95199.84;;;22.72;37.94
5550;BME280;2798;42.716;23.256;2023-09-30T09:03:34;95201.94;;;22.77;37.82
5550;BME280;2798;42.716;23.256;2023-09-30T09:06:01;95199.59;;;22.82;37.38
5550;BME280;2798;42.716;23.256;2023-09-30T09:08:27;95199.91;;;22.87;37.01
5550;BME280;2798;42.716;23.256;2023-09-30T09:10:56;95187.06;;;22.92;36.64
5550;BME280;2798;42.716;23.256;2023-09-30T09:13:22;95183.25;;;22.95;37.09
5550;BME280;2798;42.716;23.256;2023-09-30T09:15:47;95186.97;;;23.01;36.98
5550;BME280;2798;42.716;23.256;2023-09-30T09:18:15;95185.56;;;23.13;36.86
5550;BME280;2798;42.716;23.256;2023-09-30T09:21:07;95189.91;;;23.21;36.75
5550;BME280;2798;42.716;23.256;2023-09-30T09:23:32;95184.94;;;23.26;36.67
5550;BME280;2798;42.716;23.256;2023-09-30T09:26:03;95192.72;;;23.34;36.36
5550;BME280;2798;42.716;23.256;2023-09-30T09:28:34;95186.25;;;23.45;35.09
5550;BME280;2798;42.716;23.256;2023-09-30T09:31:01;95177.66;;;23.52;35.13
5550;BME280;2798;42.716;23.256;2023-09-30T09:33:34;95178.81;;;23.49;35.16
5550;BME280;2798;42.716;23.256;2023-09-30T09:36:00;95172.94;;;23.62;34.71
5550;BME280;2798;42.716;23.256;2023-09-30T09:38:26;95175.28;;;23.57;34.71
5550;BME280;2798;42.716;23.256;2023-09-30T09:41:01;95173.28;;;23.59;35.42
5550;BME280;2798;42.716;23.256;2023-09-30T09:43:26;95176.19;;;23.64;35.51
5550;BME280;2798;42.716;23.256;2023-09-30T09:45:51;95173.00;;;23.69;34.94
5550;BME280;2798;42.716;23.256;2023-09-30T09:48:17;95179.59;;;23.80;34.52
5550;BME280;2798;42.716;23.256;2023-09-30T09:50:43;95178.88;;;23.86;34.36
5550;BME280;2798;42.716;23.256;2023-09-30T09:53:11;95167.00;;;23.90;34.40
5550;BME280;2798;42.716;23.256;2023-09-30T09:55:38;95165.19;;;23.91;34.54
5550;BME280;2798;42.716;23.256;2023-09-30T09:58:04;95179.88;;;24.00;34.13
5550;BME280;2798;42.716;23.256;2023-09-30T10:00:31;95166.09;;;23.98;34.24
5550;BME280;2798;42.716;23.256;2023-09-30T10:02:58;95160.47;;;24.01;34.36
5550;BME280;2798;42.716;23.256;2023-09-30T10:05:24;95160.34;;;24.10;34.08
5550;BME280;2798;42.716;23.256;2023-09-30T10:08:08;95154.19;;;24.17;34.00
5550;BME280;2798;42.716;23.256;2023-09-30T10:10:36;95154.44;;;24.23;33.75
5550;BME280;2798;42.716;23.256;2023-09-30T10:13:02;95144.53;;;24.25;32.99
5550;BME280;2798;42.716;23.256;2023-09-30T10:17:57;95147.88;;;24.34;32.72
5550;BME280;2798;42.716;23.256;2023-09-30T10:20:29;95147.81;;;24.49;31.07
5550;BME280;2798;42.716;23.256;2023-09-30T10:25:39;95139.19;;;24.55;30.36
5550;BME280;2798;42.716;23.256;2023-09-30T10:36:33;95132.41;;;24.46;29.19
5550;BME280;2798;42.716;23.256;2023-09-30T10:39:00;95137.13;;;24.50;29.21
5550;BME280;2798;42.716;23.256;2023-09-30T10:46:53;95117.38;;;24.61;28.47
5550;BME280;2798;42.716;23.256;2023-09-30T10:51:47;95077.84;;;24.54;28.91
5550;BME280;2798;42.716;23.256;2023-09-30T10:54:13;95106.00;;;24.83;28.86
5550;BME280;2798;42.716;23.256;2023-09-30T10:56:39;95111.84;;;24.85;28.40
5550;BME280;2798;42.716;23.256;2023-09-30T10:59:04;95108.06;;;24.87;29.04
5550;BME280;2798;42.716;23.256;2023-09-30T11:01:33;95112.81;;;24.99;29.17
5550;BME280;2798;42.716;23.256;2023-09-30T11:04:03;95109.81;;;25.09;28.33
5550;BME280;2798;42.716;23.256;2023-09-30T11:06:29;95086.31;;;25.07;28.50
5550;BME280;2798;42.716;23.256;2023-09-30T11:08:56;95099.84;;;25.39;27.90
5550;BME280;2798;42.716;23.256;2023-09-30T11:14:02;95098.69;;;25.49;27.66
5550;BME280;2798;42.716;23.256;2023-09-30T11:16:29;95097.09;;;25.54;27.74
5550;BME280;2798;42.716;23.256;2023-09-30T11:18:54;95102.41;;;25.61;27.68
5550;BME280;2798;42.716;23.256;2023-09-30T11:21:21;95098.78;;;25.62;27.69
5550;BME280;2798;42.716;23.256;2023-09-30T11:23:47;95099.22;;;25.73;27.84
5550;BME280;2798;42.716;23.256;2023-09-30T11:26:12;95090.31;;;25.80;27.53
5550;BME280;2798;42.716;23.256;2023-09-30T11:28:42;95093.19;;;25.92;27.73
5550;BME280;2798;42.716;23.256;2023-09-30T11:31:09;95089.16;;;25.97;27.58
5550;BME280;2798;42.716;23.256;2023-09-30T11:33:51;95082.06;;;26.04;27.25
5550;BME280;2798;42.716;23.256;2023-09-30T11:36:18;95086.53;;;26.10;27.34
5550;BME280;2798;42.716;23.256;2023-09-30T11:38:44;95082.47;;;26.14;27.58
5550;BME280;2798;42.716;23.256;2023-09-30T11:41:10;95084.94;;;26.23;27.77
5550;BME280;2798;42.716;23.256;2023-09-30T11:43:36;95077.81;;;26.30;27.92
5550;BME280;2798;42.716;23.256;2023-09-30T11:46:07;95078.50;;;26.39;27.46
5550;BME280;2798;42.716;23.256;2023-09-30T11:48:34;95064.47;;;26.45;27.70
5550;BME280;2798;42.716;23.256;2023-09-30T11:51:00;95068.31;;;26.56;27.70
5550;BME280;2798;42.716;23.256;2023-09-30T11:53:28;95069.31;;;26.62;27.58
5550;BME280;2798;42.716;23.256;2023-09-30T11:55:55;95079.09;;;26.54;27.71
5550;BME280;2798;42.716;23.256;2023-09-30T11:58:21;95058.59;;;26.57;27.68
5550;BME280;2798;42.716;23.256;2023-09-30T12:00:47;95054.31;;;26.62;27.71
5550;BME280;2798;42.716;23.256;2023-09-30T12:03:15;95046.81;;;26.66;27.55
5550;BME280;2798;42.716;23.256;2023-09-30T12:05:41;95053.91;;;26.72;27.26
5550;BME280;2798;42.716;23.256;2023-09-30T12:08:06;95038.69;;;26.74;27.50
5550;BME280;2798;42.716;23.256;2023-09-30T12:10:32;95045.56;;;26.75;27.19
5550;BME280;2798;42.716;23.256;2023-09-30T12:12:57;95052.66;;;26.82;26.40
5550;BME280;2798;42.716;23.256;2023-09-30T12:15:23;95054.50;;;26.68;26.58
5550;BME280;2798;42.716;23.256;2023-09-30T12:17:48;95051.25;;;26.59;26.92
5550;BME280;2798;42.716;23.256;2023-09-30T12:20:14;95037.47;;;26.43;27.25
5550;BME280;2798;42.716;23.256;2023-09-30T12:22:41;95040.72;;;26.32;27.62
5550;BME280;2798;42.716;23.256;2023-09-30T12:25:06;95027.91;;;26.22;27.39
5550;BME280;2798;42.716;23.256;2023-09-30T12:27:33;95029.34;;;26.24;27.69
5550;BME280;2798;42.716;23.256;2023-09-30T12:29:58;95020.22;;;26.34;27.70
5550;BME280;2798;42.716;23.256;2023-09-30T12:32:24;95028.13;;;26.54;27.43
5550;BME280;2798;42.716;23.256;2023-09-30T12:34:51;95026.09;;;26.49;27.07
5550;BME280;2798;42.716;23.256;2023-09-30T12:37:17;95029.56;;;26.50;27.15
5550;BME280;2798;42.716;23.256;2023-09-30T12:39:43;95020.00;;;26.49;26.89
5550;BME280;2798;42.716;23.256;2023-09-30T12:42:10;95028.97;;;26.34;27.04
5550;BME280;2798;42.716;23.256;2023-09-30T12:44:37;95022.66;;;26.35;27.11
5550;BME280;2798;42.716;23.256;2023-09-30T12:47:02;95020.41;;;26.46;27.12
5550;BME280;2798;42.716;23.256;2023-09-30T12:49:30;95019.63;;;26.38;26.99
5550;BME280;2798;42.716;23.256;2023-09-30T12:51:55;95022.25;;;26.52;26.97
5550;BME280;2798;42.716;23.256;2023-09-30T12:54:21;95013.53;;;26.58;26.77
5550;BME280;2798;42.716;23.256;2023-09-30T12:56:46;95011.06;;;26.63;26.84
5550;BME280;2798;42.716;23.256;2023-09-30T12:59:12;95014.53;;;26.57;26.69
5550;BME280;2798;42.716;23.256;2023-09-30T13:01:37;95014.09;;;26.60;26.83
5550;BME280;2798;42.716;23.256;2023-09-30T13:04:04;95001.31;;;26.57;26.62
5550;BME280;2798;42.716;23.256;2023-09-30T13:06:33;95009.25;;;26.64;26.63
5550;BME280;2798;42.716;23.256;2023-09-30T13:09:00;95009.66;;;26.61;26.56
5550;BME280;2798;42.716;23.256;2023-09-30T13:11:25;95006.59;;;26.57;26.68
5550;BME280;2798;42.716;23.256;2023-09-30T13:13:51;95024.66;;;26.67;26.78
5550;BME280;2798;42.716;23.256;2023-09-30T13:16:17;95014.72;;;26.76;26.84
5550;BME280;2798;42.716;23.256;2023-09-30T13:18:42;95008.81;;;26.74;27.09
5550;BME280;2798;42.716;23.256;2023-09-30T13:21:07;95001.50;;;26.76;26.82
5550;BME280;2798;42.716;23.256;2023-09-30T13:23:34;95004.94;;;26.83;27.22
5550;BME280;2798;42.716;23.256;2023-09-30T13:25:59;94999.22;;;26.93;27.01
5550;BME280;2798;42.716;23.256;2023-09-30T13:28:25;95002.66;;;27.07;26.78
5550;BME280;2798;42.716;23.256;2023-09-30T13:30:52;94996.53;;;27.13;26.58
5550;BME280;2798;42.716;23.256;2023-09-30T13:33:18;94999.16;;;27.13;26.26